Time;durP1;ratioP1;P1;durP2;ratioP2;P2;SDS_P1;SDS_P2;PMS_P1;PMS_P2;Temp;Humidity;BMP_temperature;BMP_pressure;BME280_temperature;BME280_humidity;BME280_pressure;Samples;Min_cycle;Max_cycle;Signal;HPM_P1;HPM_P2
2024/03/20 00:01:31;;;;;;;7.85;4.10;;;12.10;99.90;;;;;;5055077;28;20108;-43
2024/03/20 00:03:57;;;;;;;11.35;4.35;;;12.10;99.90;;;;;;5055074;28;20057;-41
2024/03/20 00:06:23;;;;;;;10.05;3.80;;;12.10;99.90;;;;;;5055031;28;20522;-42
2024/03/20 00:08:48;;;;;;;9.77;4.47;;;12.10;99.90;;;;;;5055152;28;20031;-43
2024/03/20 00:11:14;;;;;;;8.35;3.58;;;12.10;99.90;;;;;;5054615;28;20504;-41
2024/03/20 00:13:40;;;;;;;5.97;3.97;;;12.10;99.90;;;;;;5054749;28;20557;-44
2024/03/20 00:16:05;;;;;;;11.77;4.88;;;12.10;99.90;;;;;;5055014;28;20497;-48
2024/03/20 00:18:31;;;;;;;9.55;4.25;;;12.10;99.90;;;;;;5054678;28;20043;-40
2024/03/20 00:20:57;;;;;;;12.18;3.83;;;12.10;99.90;;;;;;5054690;28;20063;-42
2024/03/20 00:23:22;;;;;;;13.98;4.40;;;12.10;99.90;;;;;;5054545;28;20747;-43
2024/03/20 00:25:49;;;;;;;13.23;4.18;;;12.20;99.90;;;;;;5054517;28;20064;-41
2024/03/20 00:28:15;;;;;;;10.85;4.32;;;12.20;99.90;;;;;;5054663;28;20528;-40
2024/03/20 00:30:41;;;;;;;12.65;4.07;;;12.20;99.90;;;;;;5054535;28;20060;-40
2024/03/20 00:33:06;;;;;;;9.63;4.38;;;12.20;99.90;;;;;;5054459;28;20037;-40
2024/03/20 00:35:37;;;;;;;10.48;5.10;;;12.20;99.90;;;;;;5055577;28;20460;-42
2024/03/20 00:38:04;;;;;;;12.60;3.85;;;12.20;99.90;;;;;;5054667;28;20478;-43
2024/03/20 00:40:30;;;;;;;8.07;4.10;;;12.20;99.90;;;;;;5054153;28;20502;-41
2024/03/20 00:42:55;;;;;;;8.35;3.97;;;12.20;99.90;;;;;;5053105;28;20067;-42
2024/03/20 00:45:21;;;;;;;7.60;4.15;;;12.10;99.90;;;;;;5054110;28;20021;-40
2024/03/20 00:47:47;;;;;;;6.88;3.60;;;12.10;99.90;;;;;;5054219;28;20036;-42
2024/03/20 00:50:12;;;;;;;11.52;3.92;;;12.10;99.90;;;;;;5054017;28;20493;-48
2024/03/20 00:52:38;;;;;;;19.17;4.35;;;12.10;99.90;;;;;;5054358;28;20118;-40
2024/03/20 00:55:04;;;;;;;6.43;3.00;;;12.10;99.90;;;;;;5054374;28;20025;-46
2024/03/20 00:57:30;;;;;;;7.60;3.15;;;12.00;99.90;;;;;;5052420;28;20078;-41
2024/03/20 00:59:56;;;;;;;9.88;3.55;;;12.00;99.90;;;;;;5053961;28;20040;-43
2024/03/20 01:02:21;;;;;;;8.40;3.03;;;12.00;99.90;;;;;;5053243;28;20025;-41
2024/03/20 01:04:47;;;;;;;16.00;3.38;;;11.90;99.90;;;;;;5053995;28;20049;-41
2024/03/20 01:07:13;;;;;;;5.90;3.30;;;11.90;99.90;;;;;;5053865;28;20036;-42
2024/03/20 01:09:38;;;;;;;7.57;3.45;;;11.90;99.90;;;;;;5053661;28;20033;-43
2024/03/20 01:12:04;;;;;;;6.40;3.40;;;11.90;99.90;;;;;;5053478;28;20090;-41
2024/03/20 01:14:30;;;;;;;12.85;3.60;;;11.80;99.90;;;;;;5053510;28;20482;-41
2024/03/20 01:16:55;;;;;;;10.82;3.20;;;11.80;99.90;;;;;;5053142;28;20033;-42
2024/03/20 01:19:21;;;;;;;7.47;3.60;;;11.80;99.90;;;;;;5052820;28;20478;-42
2024/03/20 01:21:47;;;;;;;14.90;3.75;;;11.80;99.90;;;;;;5052032;28;20060;-41
2024/03/20 01:24:12;;;;;;;6.88;3.63;;;11.80;99.90;;;;;;5053456;28;20032;-41
2024/03/20 01:26:38;;;;;;;8.73;3.70;;;11.70;99.90;;;;;;5053400;28;20320;-41
2024/03/20 01:29:04;;;;;;;6.00;3.78;;;11.70;99.90;;;;;;5053542;28;20119;-40
2024/03/20 01:31:30;;;;;;;11.35;4.28;;;11.60;99.90;;;;;;5053431;28;20481;-40
2024/03/20 01:33:56;;;;;;;6.57;4.00;;;11.60;99.90;;;;;;5053382;28;20107;-41
2024/03/20 01:36:21;;;;;;;8.43;4.85;;;11.60;99.90;;;;;;5053007;28;20029;-43
2024/03/20 01:38:48;;;;;;;12.63;5.18;;;11.50;99.90;;;;;;5053213;28;20043;-44
2024/03/20 01:41:13;;;;;;;10.80;5.82;;;11.50;99.90;;;;;;5053101;28;20035;-41
2024/03/20 01:43:39;;;;;;;8.52;3.85;;;11.50;99.90;;;;;;5053357;28;20029;-41
2024/03/20 01:46:33;;;;;;;7.97;4.53;;;11.50;99.90;;;;;;5053063;28;20029;-42
2024/03/20 01:49:04;;;;;;;11.77;4.55;;;11.50;99.90;;;;;;5052885;28;20481;-44
2024/03/20 01:51:31;;;;;;;9.43;4.30;;;11.50;99.90;;;;;;5052755;28;20056;-41
2024/03/20 01:54:00;;;;;;;8.18;4.22;;;11.40;99.90;;;;;;5053197;28;20481;-42
2024/03/20 01:56:26;;;;;;;8.63;4.47;;;11.40;99.90;;;;;;5052984;28;20409;-54
2024/03/20 01:58:53;;;;;;;10.85;4.18;;;11.40;99.90;;;;;;5052758;28;20063;-55
2024/03/20 02:01:19;;;;;;;8.00;4.47;;;11.40;99.90;;;;;;5052703;28;20033;-54
2024/03/20 02:03:45;;;;;;;10.73;4.70;;;11.40;99.90;;;;;;5052345;28;20438;-54
2024/03/20 02:06:24;;;;;;;17.90;4.78;;;11.40;99.90;;;;;;5052226;28;20021;-55
2024/03/20 02:08:51;;;;;;;11.75;3.92;;;11.40;99.90;;;;;;5052691;28;20378;-55
2024/03/20 02:11:18;;;;;;;11.85;4.88;;;11.40;99.90;;;;;;5052573;28;20059;-54
2024/03/20 02:13:45;;;;;;;16.80;5.25;;;11.40;99.90;;;;;;5052395;28;20080;-54
2024/03/20 02:16:11;;;;;;;6.80;3.28;;;11.40;99.90;;;;;;5052485;28;20428;-55
2024/03/20 02:18:37;;;;;;;11.60;5.07;;;11.40;99.90;;;;;;5052436;28;20115;-52
2024/03/20 02:21:07;;;;;;;11.98;4.00;;;11.40;99.90;;;;;;5052454;28;20529;-54
2024/03/20 02:23:33;;;;;;;11.70;5.18;;;11.40;99.90;;;;;;5052604;28;20044;-54
2024/03/20 02:25:59;;;;;;;7.15;4.38;;;11.40;99.90;;;;;;5051304;28;20076;-54
2024/03/20 02:28:24;;;;;;;14.57;4.88;;;11.40;99.90;;;;;;5052410;28;20025;-55
2024/03/20 02:30:50;;;;;;;11.48;4.93;;;11.40;99.90;;;;;;5052313;28;20035;-54
2024/03/20 02:33:15;;;;;;;8.18;4.90;;;11.40;99.90;;;;;;5052320;28;20029;-54
2024/03/20 02:35:41;;;;;;;6.97;4.00;;;11.30;99.90;;;;;;5050922;28;20496;-53
2024/03/20 02:38:07;;;;;;;9.68;4.43;;;11.30;99.90;;;;;;5052164;28;20040;-51
2024/03/20 02:40:32;;;;;;;17.10;4.57;;;11.30;99.90;;;;;;5052323;28;20500;-54
2024/03/20 02:42:58;;;;;;;14.77;4.30;;;11.30;99.90;;;;;;5052020;28;20032;-54
2024/03/20 02:45:23;;;;;;;6.72;3.78;;;11.30;99.90;;;;;;5052148;28;20024;-54
2024/03/20 02:47:49;;;;;;;9.15;4.95;;;11.30;99.90;;;;;;5052101;28;20108;-54
2024/03/20 02:50:40;;;;;;;12.82;4.50;;;11.20;99.90;;;;;;5052136;28;20508;-52
2024/03/20 02:53:05;;;;;;;10.52;4.32;;;11.10;99.90;;;;;;5049484;28;20420;-54
2024/03/20 02:55:35;;;;;;;6.95;4.18;;;11.10;99.90;;;;;;5052081;28;20025;-54
2024/03/20 02:58:02;;;;;;;6.95;3.80;;;11.10;99.90;;;;;;5051875;28;20028;-55
2024/03/20 03:00:28;;;;;;;16.20;4.00;;;11.10;99.90;;;;;;5052130;28;20017;-55
2024/03/20 03:02:55;;;;;;;13.68;4.38;;;11.10;99.90;;;;;;5051913;28;20542;-53
2024/03/20 03:05:25;;;;;;;8.32;4.10;;;11.10;99.90;;;;;;5051928;28;20509;-55
2024/03/20 03:07:51;;;;;;;12.38;3.75;;;11.10;99.90;;;;;;5051779;28;20044;-54
2024/03/20 03:10:18;;;;;;;7.57;3.40;;;11.10;99.90;;;;;;5052221;28;20497;-54
2024/03/20 03:12:43;;;;;;;7.90;4.53;;;11.00;99.90;;;;;;5050433;28;20049;-52
2024/03/20 03:15:09;;;;;;;8.73;4.18;;;11.00;99.90;;;;;;5050175;28;20040;-56
2024/03/20 03:17:36;;;;;;;6.63;3.70;;;11.00;99.90;;;;;;5051432;28;20544;-55
2024/03/20 03:20:04;;;;;;;9.13;3.88;;;10.90;99.90;;;;;;5051901;28;20075;-53
2024/03/20 03:22:31;;;;;;;11.05;4.68;;;10.90;99.90;;;;;;5052082;28;20071;-55
2024/03/20 03:24:56;;;;;;;5.40;3.33;;;10.90;99.90;;;;;;5054493;28;20118;-57
2024/03/20 03:27:22;;;;;;;13.43;4.43;;;10.80;99.90;;;;;;5055752;28;20025;-50
2024/03/20 03:29:48;;;;;;;5.25;3.42;;;10.80;99.90;;;;;;5055668;28;20029;-54
2024/03/20 03:32:14;;;;;;;10.10;3.60;;;10.80;99.90;;;;;;5055718;28;20056;-53
2024/03/20 03:34:39;;;;;;;7.70;3.80;;;10.80;99.90;;;;;;5055409;28;20363;-54
2024/03/20 03:37:05;;;;;;;10.60;3.67;;;10.80;99.90;;;;;;5055344;28;20386;-52
2024/03/20 03:39:31;;;;;;;6.55;3.28;;;10.70;99.90;;;;;;5055428;28;20025;-55
2024/03/20 03:41:56;;;;;;;12.10;4.30;;;10.70;99.90;;;;;;5055356;28;20017;-54
2024/03/20 03:44:22;;;;;;;6.82;3.30;;;10.60;99.90;;;;;;5055352;28;20543;-54
2024/03/20 03:46:47;;;;;;;12.40;3.22;;;10.60;99.90;;;;;;5055323;28;20474;-54
2024/03/20 03:49:13;;;;;;;8.52;3.35;;;10.50;99.90;;;;;;5055081;28;20401;-54
2024/03/20 03:51:39;;;;;;;7.75;3.72;;;10.50;99.90;;;;;;5055112;28;20029;-55
2024/03/20 03:54:04;;;;;;;17.90;3.75;;;10.60;99.90;;;;;;5055424;28;20033;-53
2024/03/20 03:56:30;;;;;;;13.27;3.42;;;10.60;99.90;;;;;;5037185;28;20017;-56
2024/03/20 03:58:56;;;;;;;8.88;3.65;;;10.60;99.90;;;;;;5055086;28;20025;-61
2024/03/20 04:01:21;;;;;;;9.98;4.25;;;10.50;99.90;;;;;;5055291;28;20520;-52
2024/03/20 04:03:47;;;;;;;11.13;3.17;;;10.50;99.90;;;;;;5053557;28;20028;-55
2024/03/20 04:06:13;;;;;;;4.95;3.20;;;10.50;99.90;;;;;;5054780;28;20036;-51
2024/03/20 04:08:39;;;;;;;10.02;3.42;;;10.50;99.90;;;;;;5054833;28;20501;-54
2024/03/20 04:11:06;;;;;;;7.22;3.50;;;10.50;99.90;;;;;;5054820;28;20017;-53
2024/03/20 04:13:32;;;;;;;5.85;3.40;;;10.50;99.90;;;;;;5054627;28;20494;-53
2024/03/20 04:15:58;;;;;;;6.68;3.40;;;10.50;99.90;;;;;;5055083;28;20465;-54
2024/03/20 04:18:23;;;;;;;7.07;3.20;;;10.40;99.90;;;;;;5054750;28;20036;-54
2024/03/20 04:20:49;;;;;;;4.93;3.30;;;10.40;99.90;;;;;;5054734;28;20025;-54
2024/03/20 04:23:15;;;;;;;6.38;3.05;;;10.40;99.90;;;;;;5054539;28;20374;-52
2024/03/20 04:25:41;;;;;;;8.98;3.92;;;10.40;99.90;;;;;;5054566;28;20025;-54
2024/03/20 04:28:07;;;;;;;9.80;3.88;;;10.30;99.90;;;;;;5054564;28;20377;-54
2024/03/20 04:30:32;;;;;;;8.32;3.60;;;10.30;99.90;;;;;;5054901;28;20029;-42
2024/03/20 04:32:58;;;;;;;9.80;4.88;;;10.30;99.90;;;;;;5054466;28;20033;-42
2024/03/20 04:35:24;;;;;;;12.23;5.78;;;10.30;99.90;;;;;;5053385;28;20567;-41
2024/03/20 04:37:50;;;;;;;12.75;5.35;;;10.40;99.90;;;;;;5054321;28;20033;-40
2024/03/20 04:40:15;;;;;;;10.88;4.47;;;10.50;99.90;;;;;;5054169;28;20091;-53
2024/03/20 04:42:41;;;;;;;10.70;4.45;;;10.50;99.90;;;;;;5054214;28;20439;-55
2024/03/20 04:45:10;;;;;;;8.10;4.40;;;10.40;99.90;;;;;;5053103;28;20025;-54
2024/03/20 04:47:36;;;;;;;16.10;5.70;;;10.50;99.90;;;;;;5054142;28;20020;-53
2024/03/20 04:50:02;;;;;;;11.13;4.82;;;10.40;99.90;;;;;;5054151;28;20366;-54
2024/03/20 04:52:28;;;;;;;16.73;7.03;;;10.40;99.90;;;;;;5054125;28;20029;-53
2024/03/20 04:54:56;;;;;;;13.77;6.15;;;10.50;99.90;;;;;;5054171;28;20036;-51
2024/03/20 04:57:21;;;;;;;;;;;10.50;99.90;;;;;;5054188;28;20043;-56
2024/03/20 04:59:47;;;;;;;13.40;6.38;;;10.50;99.90;;;;;;5053790;28;19912;-54
2024/03/20 05:02:13;;;;;;;19.08;7.65;;;10.50;99.90;;;;;;5054113;28;20059;-55
2024/03/20 05:04:38;;;;;;;15.55;6.60;;;10.50;99.90;;;;;;5053733;28;20500;-54
2024/03/20 05:07:04;;;;;;;19.23;7.55;;;10.50;99.90;;;;;;5053861;28;20025;-55
2024/03/20 05:09:30;;;;;;;17.75;7.35;;;10.50;99.90;;;;;;5053722;28;20409;-53
2024/03/20 05:11:56;;;;;;;14.77;6.75;;;10.40;99.90;;;;;;5053563;28;20094;-54
2024/03/20 05:14:21;;;;;;;13.50;7.25;;;10.40;99.90;;;;;;5054772;28;20521;-53
2024/03/20 05:16:47;;;;;;;11.55;6.40;;;10.40;99.90;;;;;;5052542;28;20032;-54
2024/03/20 05:19:13;;;;;;;12.15;6.93;;;10.30;99.90;;;;;;5051728;28;20029;-55
2024/03/20 05:21:38;;;;;;;14.73;6.55;;;10.30;99.90;;;;;;5053542;28;20028;-39
2024/03/20 05:24:04;;;;;;;13.35;6.72;;;10.30;99.90;;;;;;5053456;28;20100;-43
2024/03/20 05:26:30;;;;;;;13.05;6.75;;;10.20;99.90;;;;;;5053648;28;20563;-41
2024/03/20 05:28:56;;;;;;;12.02;6.97;;;10.20;99.90;;;;;;5053687;28;20065;-40
2024/03/20 05:31:29;;;;;;;12.35;6.35;;;10.20;99.90;;;;;;5051930;28;20032;-40
2024/03/20 05:33:55;;;;;;;10.93;6.65;;;10.20;99.90;;;;;;5053207;28;20043;-40
2024/03/20 05:36:21;;;;;;;19.05;7.05;;;10.20;99.90;;;;;;5052185;28;20547;-40
2024/03/20 05:38:47;;;;;;;13.50;6.32;;;10.10;99.90;;;;;;5053352;28;20061;-43
2024/03/20 05:41:14;;;;;;;19.75;8.07;;;10.10;99.90;;;;;;5053248;28;20025;-56
2024/03/20 05:43:40;;;;;;;13.30;6.05;;;10.10;99.90;;;;;;5053095;28;20112;-55
2024/03/20 05:46:06;;;;;;;19.10;7.22;;;10.10;99.90;;;;;;5052751;28;20029;-53
2024/03/20 05:48:32;;;;;;;12.93;6.20;;;10.10;99.90;;;;;;5052702;28;20029;-52
2024/03/20 05:50:58;;;;;;;14.30;6.45;;;10.10;99.90;;;;;;5053118;28;20103;-51
2024/03/20 05:53:23;;;;;;;11.68;6.75;;;10.10;99.90;;;;;;5052887;28;20033;-56
2024/03/20 05:55:50;;;;;;;18.88;7.90;;;10.00;99.90;;;;;;5052962;28;20090;-54
2024/03/20 05:58:16;;;;;;;17.13;7.57;;;10.00;99.90;;;;;;5053040;28;20055;-51
2024/03/20 06:00:42;;;;;;;21.30;6.90;;;10.00;99.90;;;;;;5052785;28;20032;-54
2024/03/20 06:03:08;;;;;;;14.07;6.93;;;10.00;99.90;;;;;;5052928;28;20051;-54
2024/03/20 06:05:34;;;;;;;10.15;6.40;;;10.10;99.90;;;;;;5052659;28;20040;-54
2024/03/20 06:08:00;;;;;;;17.92;6.40;;;10.10;99.90;;;;;;5052839;28;20047;-54
2024/03/20 06:10:25;;;;;;;15.35;7.40;;;10.10;99.90;;;;;;5052654;28;20028;-54
2024/03/20 06:12:51;;;;;;;13.38;6.50;;;10.10;99.90;;;;;;5052264;28;20048;-54
2024/03/20 06:15:17;;;;;;;18.83;8.13;;;10.10;99.90;;;;;;5051698;28;20543;-56
2024/03/20 06:17:43;;;;;;;17.73;7.13;;;10.10;99.90;;;;;;5050685;28;20033;-54
2024/03/20 06:20:09;;;;;;;16.92;8.10;;;10.20;99.90;;;;;;5052350;28;20507;-53
2024/03/20 06:22:36;;;;;;;15.70;7.70;;;10.20;99.90;;;;;;5051550;28;20385;-55
2024/03/20 06:25:08;;;;;;;22.58;7.90;;;10.20;99.90;;;;;;5052547;28;20478;-55
2024/03/20 06:27:34;;;;;;;23.05;7.45;;;10.20;99.90;;;;;;5052475;28;20485;-54
2024/03/20 06:30:04;;;;;;;21.65;8.98;;;10.30;99.90;;;;;;5052571;28;20040;-54
2024/03/20 06:32:32;;;;;;;27.27;9.57;;;10.30;99.90;;;;;;5052579;28;20044;-52
2024/03/20 06:34:57;;;;;;;;;;;10.40;99.90;;;;;;5052729;28;20029;-55
2024/03/20 06:37:23;;;;;;;16.55;7.63;;;10.40;99.90;;;;;;5052051;28;19927;-55
2024/03/20 06:39:49;;;;;;;17.17;7.57;;;10.40;99.90;;;;;;5052244;28;20033;-52
2024/03/20 06:42:20;;;;;;;13.43;6.90;;;10.50;99.90;;;;;;5052080;28;20446;-55
2024/03/20 06:44:49;;;;;;;16.33;6.88;;;10.50;99.90;;;;;;5052184;28;20029;-40
2024/03/20 06:47:16;;;;;;;15.32;6.85;;;10.50;99.90;;;;;;5052409;28;20385;-40
2024/03/20 06:49:44;;;;;;;15.48;8.13;;;10.60;99.90;;;;;;5052082;28;20116;-43
2024/03/20 06:52:12;;;;;;;;;;;10.70;99.90;;;;;;5052859;28;20513;-51
2024/03/20 06:54:42;;;;;;;12.25;6.88;;;10.80;99.90;;;;;;5050615;28;19917;-53
2024/03/20 06:57:11;;;;;;;14.02;6.57;;;10.90;99.90;;;;;;5051769;28;20029;-54
2024/03/20 06:59:37;;;;;;;15.88;7.72;;;11.10;99.90;;;;;;5034430;28;20034;-54
2024/03/20 07:02:03;;;;;;;16.92;6.93;;;11.20;99.90;;;;;;5052575;28;20389;-54
2024/03/20 07:04:29;;;;;;;20.42;8.00;;;11.30;99.90;;;;;;5056019;28;20025;-54
2024/03/20 07:06:55;;;;;;;15.25;6.65;;;11.50;99.90;;;;;;5056038;28;20108;-54
2024/03/20 07:09:22;;;;;;;15.85;7.20;;;11.60;99.90;;;;;;5056036;28;20107;-54
2024/03/20 07:11:48;;;;;;;13.20;6.82;;;11.70;99.90;;;;;;5046105;28;20041;-54
2024/03/20 07:14:16;;;;;;;17.38;7.30;;;11.80;99.90;;;;;;5055676;28;20456;-54
2024/03/20 07:16:41;;;;;;;13.07;6.50;;;11.90;99.90;;;;;;5055861;28;20112;-54
2024/03/20 07:19:07;;;;;;;17.45;6.60;;;12.00;99.90;;;;;;5055799;28;20124;-55
2024/03/20 07:21:35;;;;;;;15.93;6.40;;;12.10;99.90;;;;;;5055656;28;20029;-61
2024/03/20 07:24:01;;;;;;;;;;;12.20;99.90;;;;;;5056460;28;20096;-51
2024/03/20 07:26:26;;;;;;;17.52;5.85;;;12.30;99.90;;;;;;5055679;28;20376;-54
2024/03/20 07:28:52;;;;;;;12.27;5.70;;;12.40;99.90;;;;;;5055487;28;20032;-54
2024/03/20 07:31:17;;;;;;;13.07;5.18;;;12.50;99.90;;;;;;5055806;28;20048;-55
2024/03/20 07:33:43;;;;;;;18.30;5.45;;;12.60;99.90;;;;;;5055628;28;20375;-54
2024/03/20 07:36:09;;;;;;;13.02;5.57;;;12.70;99.90;;;;;;5055540;28;20033;-55
2024/03/20 07:38:34;;;;;;;14.75;6.25;;;12.70;99.90;;;;;;5055392;28;20478;-55
2024/03/20 07:41:00;;;;;;;12.68;5.72;;;12.80;99.90;;;;;;5055767;28;20023;-55
2024/03/20 07:43:26;;;;;;;14.85;5.28;;;12.90;99.90;;;;;;5055451;28;20021;-53
2024/03/20 07:45:51;;;;;;;11.27;4.95;;;13.00;99.90;;;;;;5055577;28;20472;-53
2024/03/20 07:48:17;;;;;;;26.40;7.13;;;13.10;99.90;;;;;;5055402;28;20035;-54
2024/03/20 07:50:43;;;;;;;12.55;5.60;;;13.20;99.90;;;;;;5055128;28;20029;-55
2024/03/20 07:53:09;;;;;;;20.08;4.65;;;13.30;99.90;;;;;;5055177;28;20083;-54
2024/03/20 07:55:35;;;;;;;11.98;4.60;;;13.40;99.90;;;;;;5055191;28;20029;-54
2024/03/20 07:58:01;;;;;;;20.63;6.00;;;13.50;99.90;;;;;;5055325;28;20520;-54
2024/03/20 08:00:29;;;;;;;13.70;6.80;;;13.50;99.90;;;;;;5055418;28;20544;-47
2024/03/20 08:02:57;;;;;;;11.02;4.53;;;13.50;99.90;;;;;;5054869;28;20028;-44
2024/03/20 08:05:24;;;;;;;17.08;5.88;;;13.70;99.90;;;;;;5054797;28;20182;-44
2024/03/20 08:07:50;;;;;;;9.60;5.03;;;13.80;99.90;;;;;;5055045;28;20037;-41
2024/03/20 08:10:15;;;;;;;13.07;4.78;;;13.90;99.90;;;;;;5054636;28;20389;-43
2024/03/20 08:12:41;;;;;;;18.40;5.03;;;14.00;99.90;;;;;;5054684;28;20051;-41
2024/03/20 08:15:07;;;;;;;26.38;4.75;;;14.20;99.90;;;;;;5039155;28;20053;-42
2024/03/20 08:17:33;;;;;;;15.27;4.68;;;14.30;99.90;;;;;;5035120;28;20128;-40
2024/03/20 08:19:59;;;;;;;8.70;3.25;;;14.30;99.90;;;;;;5042495;28;20516;-39
2024/03/20 08:22:26;;;;;;;7.93;2.97;;;14.40;99.90;;;;;;5054615;28;20028;-44
2024/03/20 08:24:52;;;;;;;14.87;2.90;;;14.50;99.90;;;;;;5054664;28;20029;-42
2024/03/20 08:27:24;;;;;;;16.17;3.58;;;14.50;99.90;;;;;;5054630;28;20040;-42
2024/03/20 08:29:51;;;;;;;7.32;3.17;;;14.60;99.90;;;;;;5054703;28;20033;-41
2024/03/20 08:32:17;;;;;;;13.38;2.95;;;14.70;99.90;;;;;;5054544;28;20029;-43
2024/03/20 08:34:42;;;;;;;8.85;2.60;;;14.90;99.90;;;;;;5054566;28;20549;-43
2024/03/20 08:37:08;;;;;;;11.25;3.28;;;15.10;99.90;;;;;;5054485;28;20309;-56
2024/03/20 08:39:34;;;;;;;6.32;2.65;;;15.20;99.90;;;;;;5054216;28;20036;-52
2024/03/20 08:42:00;;;;;;;9.57;2.65;;;15.30;99.90;;;;;;5054327;28;20482;-56
2024/03/20 08:44:25;;;;;;;7.55;2.55;;;15.40;99.90;;;;;;5054538;28;20047;-56
2024/03/20 08:46:51;;;;;;;10.73;2.20;;;15.50;99.90;;;;;;5054011;28;20029;-55
2024/03/20 08:49:16;;;;;;;9.85;3.22;;;15.60;99.90;;;;;;5054278;28;20040;-55
2024/03/20 08:51:43;;;;;;;7.70;2.53;;;15.70;99.90;;;;;;5054257;28;20029;-55
2024/03/20 08:54:09;;;;;;;14.05;3.40;;;15.70;99.90;;;;;;5054055;28;20470;-56
2024/03/20 08:56:36;;;;;;;10.48;3.35;;;15.70;99.90;;;;;;5051294;28;20043;-54
2024/03/20 08:59:01;;;;;;;13.00;3.60;;;15.70;99.90;;;;;;5035953;28;20482;-53
2024/03/20 09:01:27;;;;;;;10.65;3.58;;;15.70;99.90;;;;;;5044726;28;20017;-53
2024/03/20 09:03:53;;;;;;;11.15;3.38;;;15.80;99.90;;;;;;5053979;28;20076;-53
2024/03/20 09:06:19;;;;;;;7.30;3.17;;;15.80;99.90;;;;;;5052170;28;20385;-53
2024/03/20 09:08:45;;;;;;;14.80;4.35;;;16.00;99.90;;;;;;5038912;28;20112;-50
2024/03/20 09:11:11;;;;;;;11.82;4.22;;;16.00;99.90;;;;;;5033858;28;20540;-40
2024/03/20 09:13:38;;;;;;;9.00;3.67;;;16.20;99.90;;;;;;5044392;28;20464;-38
2024/03/20 09:16:04;;;;;;;18.02;4.30;;;16.30;99.90;;;;;;5053525;28;20489;-47
2024/03/20 09:18:30;;;;;;;15.60;4.65;;;16.30;99.90;;;;;;5053295;28;20482;-56
2024/03/20 09:20:56;;;;;;;13.88;5.15;;;16.30;99.90;;;;;;5053481;28;20023;-56
2024/03/20 09:23:23;;;;;;;15.25;4.80;;;16.30;99.90;;;;;;5053421;28;20543;-56
2024/03/20 09:25:49;;;;;;;16.52;4.47;;;16.50;99.90;;;;;;5053500;28;20104;-55
2024/03/20 09:28:15;;;;;;;9.05;4.00;;;16.60;99.90;;;;;;5053080;28;20111;-50
2024/03/20 09:30:40;;;;;;;16.30;5.25;;;16.70;99.90;;;;;;5049340;28;20033;-56
2024/03/20 09:33:06;;;;;;;10.10;4.93;;;16.80;99.90;;;;;;5053104;28;20056;-56
2024/03/20 09:35:32;;;;;;;10.88;4.15;;;16.80;99.90;;;;;;5053195;28;20033;-56
2024/03/20 09:37:58;;;;;;;18.08;5.13;;;16.80;99.90;;;;;;5058573;28;20033;-55
2024/03/20 09:40:25;;;;;;;16.02;4.93;;;17.00;99.90;;;;;;5033311;28;20030;-53
2024/03/20 09:42:52;;;;;;;16.15;4.78;;;17.10;99.90;;;;;;5043800;28;20017;-53
2024/03/20 09:45:19;;;;;;;10.45;4.53;;;17.20;99.90;;;;;;5052608;28;20021;-54
2024/03/20 09:47:47;;;;;;;10.60;4.40;;;17.20;99.90;;;;;;5052888;28;20021;-55
2024/03/20 09:50:13;;;;;;;12.82;5.28;;;17.20;99.90;;;;;;5053194;28;20492;-55
2024/03/20 09:52:39;;;;;;;12.85;4.75;;;17.30;99.90;;;;;;5053049;28;20130;-55
2024/03/20 09:55:07;;;;;;;10.88;5.00;;;17.20;99.90;;;;;;5052878;28;20033;-54
2024/03/20 09:57:33;;;;;;;9.25;5.28;;;17.30;99.90;;;;;;5052612;28;20051;-54
2024/03/20 10:00:00;;;;;;;13.65;4.65;;;17.40;99.90;;;;;;5051102;28;20034;-54
2024/03/20 10:02:27;;;;;;;9.70;4.75;;;17.40;99.90;;;;;;5051762;28;20032;-54
2024/03/20 10:04:55;;;;;;;13.98;6.43;;;17.30;99.90;;;;;;5052767;28;20500;-49
2024/03/20 10:07:21;;;;;;;11.38;5.43;;;17.10;99.90;;;;;;5050770;28;20043;-54
2024/03/20 10:09:47;;;;;;;15.55;4.93;;;17.00;99.90;;;;;;5051685;28;20099;-53
2024/03/20 10:12:14;;;;;;;11.90;4.63;;;17.10;99.90;;;;;;5049531;28;20076;-53
2024/03/20 10:14:41;;;;;;;11.02;5.07;;;17.10;99.90;;;;;;5050859;28;20047;-54
2024/03/20 10:17:14;;;;;;;18.23;6.60;;;17.20;99.90;;;;;;5042089;28;20092;-53
2024/03/20 10:19:41;;;;;;;13.18;5.85;;;17.20;99.90;;;;;;5046253;28;20029;-53
2024/03/20 10:22:07;;;;;;;12.38;6.25;;;17.20;99.90;;;;;;5052852;28;20381;-54
2024/03/20 10:24:34;;;;;;;12.15;6.63;;;17.20;99.90;;;;;;5052787;28;20507;-54
2024/03/20 10:27:02;;;;;;;16.38;5.88;;;17.30;99.90;;;;;;5052755;28;20036;-54
2024/03/20 10:29:29;;;;;;;10.38;5.95;;;17.30;99.90;;;;;;5040600;28;20033;-53
2024/03/20 10:31:57;;;;;;;13.48;5.25;;;17.50;99.90;;;;;;5032671;28;20612;-54
2024/03/20 10:34:24;;;;;;;;;;;17.70;99.90;;;;;;5032778;28;20040;-55
2024/03/20 10:36:50;;;;;;;14.27;6.00;;;17.70;99.90;;;;;;5046859;28;19998;-52
2024/03/20 10:39:23;;;;;;;15.95;6.72;;;17.80;99.90;;;;;;5052271;28;20623;-52
2024/03/20 10:41:53;;;;;;;12.57;6.43;;;17.90;99.90;;;;;;5052448;28;20366;-52
2024/03/20 10:44:20;;;;;;;15.73;7.15;;;17.90;99.90;;;;;;5052538;28;20021;-55
2024/03/20 10:46:57;;;;;;;15.15;7.18;;;18.00;99.90;;;;;;5052172;28;20017;-54
2024/03/20 10:49:24;;;;;;;18.05;6.88;;;18.10;99.90;;;;;;5052058;28;20056;-59
2024/03/20 10:51:51;;;;;;;10.73;6.45;;;18.10;99.90;;;;;;5052129;28;20543;-55
2024/03/20 10:54:18;;;;;;;14.98;6.95;;;18.20;99.90;;;;;;5051858;28;20675;-54
2024/03/20 10:56:48;;;;;;;18.25;7.35;;;18.30;99.90;;;;;;5051772;28;20040;-55
2024/03/20 10:59:17;;;;;;;25.67;6.22;;;18.30;99.90;;;;;;5032178;28;20030;-55
2024/03/20 11:01:55;;;;;;;15.48;5.97;;;18.30;99.90;;;;;;5032132;28;20045;-55
2024/03/20 11:04:42;;;;;;;14.13;7.05;;;18.30;99.90;;;;;;5031957;28;20033;-52
2024/03/20 11:07:28;;;;;;;16.38;6.82;;;18.50;99.90;;;;;;5032350;28;20033;-50
2024/03/20 11:09:56;;;;;;;14.07;6.20;;;18.40;99.90;;;;;;5039287;28;20482;-55
2024/03/20 11:12:36;;;;;;;;;;;18.60;99.90;;;;;;5052099;28;20513;-54
2024/03/20 11:15:04;;;;;;;16.42;6.75;;;18.70;99.90;;;;;;5052196;28;19912;-54
2024/03/20 11:17:39;;;;;;;12.02;6.40;;;18.70;99.90;;;;;;5051928;28;20083;-55
2024/03/20 11:20:06;;;;;;;11.50;6.55;;;18.60;99.90;;;;;;5051820;28;20021;-54
2024/03/20 11:22:32;;;;;;;18.13;6.25;;;18.50;99.90;;;;;;5051640;28;20022;-54
2024/03/20 11:24:58;;;;;;;13.87;6.17;;;18.50;99.90;;;;;;5051691;28;20017;-51
2024/03/20 11:27:24;;;;;;;17.48;6.35;;;18.60;99.90;;;;;;5051615;28;20485;-55
2024/03/20 11:29:51;;;;;;;14.55;6.72;;;18.70;99.90;;;;;;5051433;28;20355;-55
2024/03/20 11:32:22;;;;;;;14.02;6.72;;;18.80;99.90;;;;;;5051741;28;20478;-54
2024/03/20 11:34:48;;;;;;;14.57;6.45;;;18.80;99.90;;;;;;5051922;28;20025;-55
2024/03/20 11:37:18;;;;;;;15.13;6.80;;;18.70;99.90;;;;;;5051426;28;20547;-54
2024/03/20 11:39:45;;;;;;;15.35;7.22;;;18.70;99.90;;;;;;5051711;28;20481;-54
2024/03/20 11:42:15;;;;;;;16.07;6.30;;;18.70;99.90;;;;;;5051615;28;20499;-54
2024/03/20 11:44:41;;;;;;;13.60;4.85;;;18.60;99.90;;;;;;5052152;28;20019;-54
2024/03/20 11:47:11;;;;;;;10.23;3.83;;;18.60;99.90;;;;;;5055136;28;20029;-54
2024/03/20 11:49:47;;;;;;;7.97;4.70;;;18.70;99.90;;;;;;5055716;28;20469;-54
2024/03/20 11:52:17;;;;;;;10.40;5.68;;;18.90;99.90;;;;;;5055413;28;20025;-51
2024/03/20 11:54:45;;;;;;;11.25;4.78;;;19.00;99.90;;;;;;5048346;28;20420;-52
2024/03/20 11:57:15;;;;;;;15.55;6.15;;;19.10;99.90;;;;;;5035413;28;20555;-54
2024/03/20 11:59:54;;;;;;;9.77;5.20;;;19.20;99.90;;;;;;5035214;28;20053;-55
2024/03/20 12:02:22;;;;;;;14.55;5.47;;;19.20;99.90;;;;;;5054246;28;20094;-52
2024/03/20 12:04:48;;;;;;;9.70;5.05;;;19.30;99.90;;;;;;5054753;28;20025;-53
2024/03/20 12:07:27;;;;;;;14.73;5.97;;;19.40;99.90;;;;;;5055296;28;20435;-54
2024/03/20 12:09:53;;;;;;;14.02;6.05;;;19.40;99.90;;;;;;5053735;28;20024;-55
2024/03/20 12:12:20;;;;;;;15.13;5.78;;;19.40;99.90;;;;;;5055206;28;20124;-56
2024/03/20 12:14:47;;;;;;;;;;;19.50;99.90;;;;;;5055295;28;20390;-42
2024/03/20 12:17:12;;;;;;;6.00;4.63;;;19.70;99.90;;;;;;5054622;28;19917;-41
2024/03/20 12:19:38;;;;;;;10.48;4.45;;;19.90;99.90;;;;;;5054715;28;20027;-42
2024/03/20 12:22:05;;;;;;;8.77;4.75;;;20.10;99.90;;;;;;5054595;28;20380;-41
2024/03/20 12:24:32;;;;;;;15.23;4.90;;;20.30;99.90;;;;;;5054960;28;20033;-43
2024/03/20 12:26:58;;;;;;;10.88;5.43;;;20.40;99.90;;;;;;5054728;28;20367;-44
2024/03/20 12:29:23;;;;;;;12.02;5.07;;;20.50;99.90;;;;;;5054684;28;20063;-42
2024/03/20 12:31:49;;;;;;;8.98;4.95;;;20.50;99.90;;;;;;5054891;28;20017;-41
2024/03/20 12:34:15;;;;;;;7.40;4.47;;;20.50;99.90;;;;;;5054347;28;20021;-50
2024/03/20 12:36:41;;;;;;;10.10;5.28;;;20.40;99.90;;;;;;5054437;28;20029;-40
2024/03/20 12:39:08;;;;;;;10.90;4.72;;;20.50;99.90;;;;;;5054246;28;20359;-43